Flight Track Log - Related Links

Times and Time Zones

All times are in EDT time to prevent confusion due to time zone crossing. See the N44CG flight status page for this flight to view local times or setup timezone preferences in your user account.

Time Position Orientation Groundspeed Altitude Reporting Facility
EDT Latitude Longitude Course Direction KTS MPH feet Rate Location/Type
Sun 01:48:53 PM 46.5572 -93.7325 275° West 108 124 2,400  Level Minneapolis Center
Sun 01:49:00 PM 46.5594 -94.0298 274° West  Level Estimated
Sun 01:49:55 PM 46.5531 -93.7867 264° West 115 132 3,300  Level Minneapolis Center
Sun 01:50:00 PM 46.5630 -94.0885 275° West  Level FlightAware Approximate
Sun 01:50:57 PM 46.5558 -93.8347 275° West 115 132 4,000  Level Minneapolis Center
Sun 01:51:00 PM 46.5665 -94.1472 275° West  Level FlightAware Approximate
Sun 01:51:59 PM 46.5600 -93.8808 278° West 115 132 4,700  Level Minneapolis Center
Sun 01:52:00 PM 46.5701 -94.2060 275° West  Level FlightAware Approximate
Sun 01:53:00 PM 46.5736 -94.2647 275° West  Level FlightAware Approximate
Sun 01:53:00 PM 46.5631 -93.9283 275° West 116 133 5,500  Level Minneapolis Center
Sun 01:54:00 PM 46.5770 -94.3234 275° West  Level FlightAware Approximate
Sun 01:54:02 PM 46.5658 -93.9753 275° West 117 135 6,100  Level Minneapolis Center
Sun 01:55:04 PM 46.5683 -94.0242 274° West 118 136 6,800 726 Climbing Minneapolis Center
Sun 01:56:06 PM 46.5714 -94.0844 274° West 121 139 7,600 581 Climbing Minneapolis Center
Sun 01:57:08 PM 46.5744 -94.1367 275° West 125 144 8,000 194 Climbing Minneapolis Center
Sun 01:58:10 PM 46.5769 -94.1958 274° West 133 153 8,000  Level Minneapolis Center
Sun 01:59:12 PM 46.5800 -94.2608 274° West 145 167 8,000  Level Minneapolis Center
Sun 02:00:14 PM 46.5844 -94.3236 276° West 152 175 8,000  Level Minneapolis Center
Sun 02:01:16 PM 46.5878 -94.3867 274° West 155 178 8,000  Level Minneapolis Center
Sun 02:02:17 PM 46.5914 -94.4519 275° West 158 182 8,000  Level Minneapolis Center
Sun 02:03:19 PM 46.5953 -94.5294 274° West 160 184 8,000  Level Minneapolis Center
Sun 02:04:21 PM 46.5994 -94.5950 275° West 161 185 8,000  Level Minneapolis Center
Sun 02:05:23 PM 46.6028 -94.6608 274° West 162 186 8,000  Level Minneapolis Center
Sun 02:06:25 PM 46.6061 -94.7244 274° West 161 185 8,000  Level Minneapolis Center
Sun 02:07:27 PM 46.6097 -94.7900 275° West 161 185 8,000  Level Minneapolis Center
Sun 02:08:29 PM 46.6128 -94.8522 274° West 159 183 8,000  Level Minneapolis Center
Sun 02:09:31 PM 46.6161 -94.9239 274° West 154 177 8,000  Level Minneapolis Center
Sun 02:10:32 PM 46.6189 -94.9844 274° West 152 175 8,000  Level Minneapolis Center
Sun 02:11:34 PM 46.6217 -95.0453 274° West 151 174 8,000  Level Minneapolis Center
Sun 02:12:36 PM 46.6256 -95.1064 275° West 151 174 8,000  Level Minneapolis Center
Sun 02:13:38 PM 46.6283 -95.1686 274° West 153 176 8,000  Level Minneapolis Center
Sun 02:14:40 PM 46.6306 -95.2314 273° West 154 177 8,000  Level Minneapolis Center
Sun 02:15:43 PM 46.6342 -95.2931 275° West 154 177 8,000 -48 Level Minneapolis Center
Sun 02:16:45 PM 46.6378 -95.3656 274° West 152 175 7,900 -49 Descending Minneapolis Center
Sun 02:17:46 PM 46.6408 -95.4256 274° West 151 174 7,900  Level Minneapolis Center
Sun 02:18:48 PM 46.6425 -95.4850 272° West 146 168 7,900  Level Minneapolis Center
Sun 02:19:50 PM 46.6475 -95.5519 276° West 152 175 7,900  Level Minneapolis Center
Sun 02:20:52 PM 46.6494 -95.6156 273° West 153 176 7,900  Level Minneapolis Center
Sun 02:21:54 PM 46.6528 -95.6778 274° West 149 171 7,900  Level Minneapolis Center
Sun 02:22:56 PM 46.6544 -95.7411 272° West 150 173 7,900  Level Minneapolis Center
Sun 02:23:59 PM 46.6586 -95.8031 276° West 148 170 7,900 48 Level Minneapolis Center
Sun 02:25:01 PM 46.6603 -95.8622 272° West 151 174 8,000 48 Climbing Minneapolis Center
Sun 02:26:03 PM 46.6628 -95.9258 273° West 150 173 8,000  Level Minneapolis Center
Sun 02:27:05 PM 46.6653 -95.9878 273° West 147 169 8,000 -48 Level Minneapolis Center
Sun 02:28:07 PM 46.6683 -96.0483 274° West 145 167 7,900 -48 Descending Minneapolis Center
Sun 02:29:09 PM 46.6708 -96.1106 273° West 145 167 7,900  Level Minneapolis Center
Sun 02:30:10 PM 46.6733 -96.1700 274° West 143 165 7,900  Level Minneapolis Center
Sun 02:31:12 PM 46.6753 -96.2258 273° West 142 163 7,900  Level Minneapolis Center
Sun 02:32:14 PM 46.6778 -96.2858 273° West 143 165 7,900  Level Minneapolis Center
Sun 02:33:16 PM 46.6800 -96.3483 273° West 146 168 7,900  Level Minneapolis Center
Sun 02:34:18 PM 46.6825 -96.4108 273° West 148 170 7,900  Level Minneapolis Center
Sun 02:35:20 PM 46.6844 -96.4719 273° West 146 168 7,900 48 Level Minneapolis Center
Sun 02:36:22 PM 46.6872 -96.5353 274° West 149 171 8,000  Climbing Minneapolis Center
Sun 02:37:24 PM 46.6894 -96.5939 273° West 150 173 7,900  Descending Minneapolis Center
Sun 02:38:26 PM 46.6914 -96.6561 273° West 149 171 8,000  Climbing Minneapolis Center
Sun 02:39:28 PM 46.6936 -96.7192 273° West 149 171 7,900  Descending Minneapolis Center
Sun 02:40:30 PM 46.6956 -96.7819 273° West 147 169 8,000  Climbing Minneapolis Center
Sun 02:41:33 PM 46.6981 -96.8444 273° West 150 173 7,900 -48 Descending Minneapolis Center
Sun 02:42:35 PM 46.6997 -96.9022 272° West 149 171 7,900 48 Level Minneapolis Center
Sun 02:43:37 PM 46.7019 -96.9647 273° West 147 169 8,000 48 Climbing Minneapolis Center
Sun 02:44:39 PM 46.7036 -97.0267 272° West 147 169 8,000  Level Minneapolis Center
Sun 02:45:41 PM 46.7058 -97.0867 273° West 141 162 8,000  Level Minneapolis Center
Sun 02:46:43 PM 46.7081 -97.1481 273° West 146 168 8,000  Level Minneapolis Center
Sun 02:47:45 PM 46.7094 -97.2097 272° West 144 166 8,000  Level Minneapolis Center
Sun 02:48:47 PM 46.7114 -97.2672 273° West 146 168 8,000  Level Minneapolis Center
Sun 02:49:49 PM 46.7125 -97.3281 272° West 144 166 8,000  Level Minneapolis Center
Sun 02:50:51 PM 46.7147 -97.3897 273° West 148 170 8,000  Level Minneapolis Center
Sun 02:51:53 PM 46.7164 -97.4489 272° West 141 162 8,000  Level Minneapolis Center
Sun 02:52:55 PM 46.7183 -97.5092 273° West 142 163 8,000  Level Minneapolis Center
Sun 02:53:57 PM 46.7200 -97.5714 272° West 146 168 8,000  Level Minneapolis Center
Sun 02:54:59 PM 46.7214 -97.6344 272° West 149 171 8,000  Level Minneapolis Center
Sun 02:56:02 PM 46.7233 -97.6917 273° West 148 170 8,000  Level Minneapolis Center
Sun 02:57:04 PM 46.7250 -97.7542 272° West 148 170 8,000 -48 Level Minneapolis Center
Sun 02:58:06 PM 46.7269 -97.8094 273° West 146 168 7,900 -48 Descending Minneapolis Center
Sun 02:59:08 PM 46.7289 -97.8689 273° West 146 168 7,900  Level Minneapolis Center
Sun 03:00:11 PM 46.7314 -97.9400 273° West 146 168 7,900  Level Minneapolis Center
Sun 03:01:13 PM 46.7317 -97.9992 270° West 147 169 7,900  Level Minneapolis Center
Sun 03:02:15 PM 46.7331 -98.0583 272° West 146 168 7,900  Level Minneapolis Center
Sun 03:03:17 PM 46.7342 -98.1164 272° West 145 167 7,900  Level Minneapolis Center
Sun 03:04:19 PM 46.7358 -98.1767 272° West 147 169 7,900  Level Minneapolis Center
Sun 03:05:21 PM 46.7381 -98.2347 273° West 146 168 7,900  Level Minneapolis Center
Sun 03:06:23 PM 46.7389 -98.3053 271° West 145 167 7,900  Level Minneapolis Center
Sun 03:07:25 PM 46.7400 -98.3642 272° West 146 168 7,900  Level Minneapolis Center
Sun 03:08:28 PM 46.7408 -98.4225 271° West 145 167 7,900  Level Minneapolis Center
Sun 03:09:30 PM 46.7419 -98.4811 272° West 145 167 7,900  Level Minneapolis Center
Sun 03:10:32 PM 46.7433 -98.5411 272° West 146 168 7,900  Level Minneapolis Center
Sun 03:11:34 PM 46.7436 -98.6003 270° West 147 169 7,900  Level Minneapolis Center
Sun 03:12:36 PM 46.7456 -98.6700 272° West 145 167 7,900  Level Minneapolis Center
Sun 03:13:38 PM 46.7464 -98.7286 271° West 145 167 7,900  Level Minneapolis Center
Sun 03:14:40 PM 46.7467 -98.7861 270° West 144 166 7,900  Level Minneapolis Center
Sun 03:15:42 PM 46.7472 -98.8433 271° West 142 163 7,900  Level Minneapolis Center
Sun 03:16:44 PM 46.7481 -98.9003 271° West 142 163 7,900  Level Minneapolis Center
Sun 03:17:45 PM 46.7494 -98.9592 272° West 144 166 7,900  Level Minneapolis Center
Sun 03:18:47 PM 46.7500 -99.0303 271° West 145 167 7,900  Level Minneapolis Center
Sun 03:19:49 PM 46.7511 -99.0886 272° West 145 167 7,900  Level Minneapolis Center
Sun 03:20:51 PM 46.7519 -99.1475 271° West 146 168 7,900  Level Minneapolis Center
Sun 03:21:53 PM 46.7533 -99.2067 272° West 146 168 7,900  Level Minneapolis Center
Sun 03:22:55 PM 46.7525 -99.2625 269° West 142 163 7,900  Level Minneapolis Center
Sun 03:23:57 PM 46.7542 -99.3228 272° West 144 166 7,900  Level Minneapolis Center
Sun 03:24:59 PM 46.7581 -99.3942 275° West 151 174 7,900  Level Minneapolis Center
Sun 03:26:00 PM 46.7589 -99.4575 271° West 144 166 7,900  Level Minneapolis Center
Sun 03:27:02 PM 46.7594 -99.5192 271° West 148 170 7,900  Level Minneapolis Center
Sun 03:28:04 PM 46.7589 -99.5808 269° West 149 171 7,900  Level Minneapolis Center
Sun 03:29:06 PM 46.7597 -99.6422 271° West 150 173 7,900  Level Minneapolis Center
Sun 03:30:08 PM 46.7603 -99.7031 271° West 148 170 7,900 48 Level Minneapolis Center
Sun 03:31:10 PM 46.7611 -99.7625 271° West 145 167 8,000 49 Climbing Minneapolis Center
Sun 03:32:11 PM 46.7611 -99.8244 270° West 149 171 8,000  Level Minneapolis Center
Sun 03:33:13 PM 46.7611 -99.8897 270° West 148 170 8,000  Level Minneapolis Center
Sun 03:34:15 PM 46.7614 -99.9494 270° West 145 167 8,000  Level Minneapolis Center
Sun 03:35:17 PM 46.7619 -100.0092 271° West 145 167 8,000  Level Minneapolis Center
Sun 03:36:19 PM 46.7622 -100.0708 270° West 148 170 8,000  Level Minneapolis Center
Sun 03:37:21 PM 46.7608 -100.1331 268° West 150 173 8,000  Level Minneapolis Center
Sun 03:38:22 PM 46.7614 -100.1939 271° West 149 171 8,000  Level Minneapolis Center
Sun 03:39:24 PM 46.7619 -100.2581 271° West 155 178 8,000  Level Minneapolis Center
Sun 03:40:26 PM 46.7617 -100.3269 270° West 156 180 8,000  Level Minneapolis Center
Sun 03:41:28 PM 46.7614 -100.3892 270° West 152 175 8,000  Level Minneapolis Center
Sun 03:42:42 PM 46.7619 -100.4519 271° West 152 175 8,000  Level Minneapolis Center
Sun 03:43:44 PM 46.7617 -100.5286 270° West 150 173 8,000  Level Minneapolis Center
Sun 03:44:46 PM 46.7617 -100.5900 270° West 149 171 8,000  Level Minneapolis Center
Sun 03:45:48 PM 46.7617 -100.6511 270° West 148 170 8,000  Level Minneapolis Center
Sun 03:46:50 PM 46.7592 -100.7150 267° West 153 176 8,000  Level Minneapolis Center
Sun 03:47:52 PM 46.7550 -100.7761 264° West 147 169 8,000  Level Minneapolis Center
Sun 03:48:54 PM 46.7503 -100.8381 264° West 150 173 8,000  Level Minneapolis Center
Sun 03:50:08 PM 46.7447 -100.9153 264° West 153 176 8,000  Level Minneapolis Center
Sun 03:51:10 PM 46.7406 -100.9772 264° West 152 175 8,000  Level Minneapolis Center
Sun 03:52:12 PM 46.7361 -101.0392 264° West 150 173 8,000  Level Minneapolis Center
Sun 03:53:13 PM 46.7322 -101.1006 265° West 150 173 8,000  Level Minneapolis Center
Sun 03:54:15 PM 46.7269 -101.1617 263° West 150 173 8,000  Level Minneapolis Center
Sun 03:55:17 PM 46.7222 -101.2286 264° West 151 174 8,000  Level Minneapolis Center
Sun 03:56:19 PM 46.7183 -101.2919 265° West 153 176 8,000  Level Minneapolis Center
Sun 03:57:21 PM 46.7136 -101.3547 264° West 153 176 8,000  Level Minneapolis Center
Sun 03:58:23 PM 46.7081 -101.4181 263° West 155 178 8,000  Level Minneapolis Center
Sun 03:59:29 PM 46.7019 -101.4864 263° West 155 178 8,000  Level Minneapolis Center
Sun 04:00:31 PM 46.6989 -101.5481 266° West 152 175 8,000  Level Minneapolis Center
Sun 04:01:33 PM 46.6944 -101.6103 264° West 151 174 8,000  Level Minneapolis Center
Sun 04:02:35 PM 46.6883 -101.6783 263° West 154 177 8,000  Level Minneapolis Center
Sun 04:03:37 PM 46.6844 -101.7408 265° West 154 177 8,000  Level Minneapolis Center
Sun 04:04:39 PM 46.6789 -101.8028 263° West 152 175 8,000  Level Minneapolis Center
Sun 04:05:41 PM 46.6742 -101.8639 264° West 151 174 8,000  Level Minneapolis Center
Sun 04:06:43 PM 46.6689 -101.9256 263° West 151 174 8,000  Level Minneapolis Center
Sun 04:07:45 PM 46.6647 -101.9869 264° West 149 171 8,000  Level Minneapolis Center
Sun 04:08:47 PM 46.6597 -102.0458 263° West 145 167 8,000  Level Minneapolis Center
Sun 04:10:26 PM 46.6631 -102.1392 273° West 140 161 8,000  Level Minneapolis Center
Sun 04:11:28 PM 46.6556 -102.1981 260° West 146 168 8,000  Level Minneapolis Center
Sun 04:12:30 PM 46.6517 -102.2564 264° West 146 168 8,000  Level Minneapolis Center
Sun 04:13:32 PM 46.6461 -102.3139 262° West 146 168 8,000  Level Minneapolis Center
Sun 04:14:34 PM 46.6417 -102.3817 265° West 144 166 8,000  Level Minneapolis Center
Sun 04:15:36 PM 46.6372 -102.4389 264° West 143 165 8,000  Level Minneapolis Center
Sun 04:16:38 PM 46.6317 -102.4956 262° West 142 163 8,000  Level Minneapolis Center
Sun 04:17:40 PM 46.6278 -102.5536 264° West 143 165 8,000  Level Minneapolis Center
Sun 04:18:43 PM 46.6219 -102.6108 262° West 143 165 8,000  Level Minneapolis Center
Sun 04:19:45 PM 46.6178 -102.6706 264° West 145 167 8,000  Level Minneapolis Center
Sun 04:20:47 PM 46.6119 -102.7417 263° West 147 169 8,000  Level Minneapolis Center
Sun 04:21:49 PM 46.6069 -102.7992 263° West 146 168 8,000  Level Minneapolis Center
Sun 04:22:51 PM 46.6025 -102.8567 264° West 145 167 8,000  Level Minneapolis Center
Sun 04:23:53 PM 46.5969 -102.9144 262° West 145 167 8,000 -48 Level Minneapolis Center
Sun 04:24:55 PM 46.5919 -102.9728 263° West 145 167 7,900 -48 Descending Minneapolis Center
Sun 04:25:57 PM 46.5872 -103.0322 263° West 146 168 7,900  Level Minneapolis Center
Sun 04:26:59 PM 46.5817 -103.1022 263° West 146 168 7,900  Level Minneapolis Center
Sun 04:28:01 PM 46.5758 -103.1581 261° West 144 166 7,900  Level Minneapolis Center
Sun 04:29:03 PM 46.5714 -103.2150 264° West 143 165 7,900  Level Minneapolis Center
Sun 04:30:05 PM 46.5661 -103.2731 262° West 143 165 7,900  Level Minneapolis Center
Sun 04:31:07 PM 46.5608 -103.3303 262° West 144 166 7,900  Level Minneapolis Center
Sun 04:32:09 PM 46.5558 -103.3864 263° West 143 165 7,900  Level Minneapolis Center
Sun 04:33:12 PM 46.5497 -103.4556 263° West 143 165 7,900  Level Minneapolis Center
Sun 04:34:14 PM 46.5442 -103.5144 262° West 144 166 7,900  Level Minneapolis Center
Sun 04:35:16 PM 46.5383 -103.5714 262° West 145 167 7,900  Level Minneapolis Center
Sun 04:36:18 PM 46.5339 -103.6286 264° West 143 165 7,900  Level Minneapolis Center
Sun 04:37:20 PM 46.5289 -103.6856 263° West 143 165 7,900  Level Minneapolis Center
Sun 04:38:22 PM 46.5233 -103.7417 262° West 142 163 7,900  Level Minneapolis Center
Sun 04:39:25 PM 46.5175 -103.8089 263° West 141 162 7,900  Level Minneapolis Center
Sun 04:40:27 PM 46.5117 -103.8664 262° West 142 163 7,900  Level Minneapolis Center
Sun 04:41:29 PM 46.5061 -103.9242 262° West 143 165 7,900  Level Minneapolis Center
Sun 04:42:48 PM 46.4964 -104.0106 261° West 147 169 7,900  Level Salt Lake Center
Sun 04:43:50 PM 46.4914 -104.0669 263° West 146 168 7,900  Level Salt Lake Center
Sun 04:44:52 PM 46.4856 -104.1250 262° West 145 167 7,900  Level Salt Lake Center
Sun 04:45:54 PM 46.4800 -104.1819 262° West 145 167 7,900  Level Salt Lake Center
Sun 04:46:56 PM 46.4744 -104.2406 262° West 145 167 7,900  Level Salt Lake Center
Sun 04:47:57 PM 46.4689 -104.2997 262° West 146 168 7,900  Level Salt Lake Center
Sun 04:48:59 PM 46.4617 -104.3697 262° West 147 169 7,900  Level Salt Lake Center
Sun 04:50:01 PM 46.4561 -104.4297 262° West 147 169 7,900  Level Salt Lake Center
Sun 04:51:03 PM 46.4508 -104.4881 263° West 148 170 7,900  Level Salt Lake Center
Sun 04:52:05 PM 46.4439 -104.5453 260° West 147 169 7,900  Level Salt Lake Center
Sun 04:53:06 PM 46.4386 -104.6039 263° West 146 168 7,900  Level Salt Lake Center
Sun 04:54:08 PM 46.4328 -104.6644 262° West 148 170 7,900  Level Salt Lake Center
Sun 04:55:10 PM 46.4264 -104.7250 261° West 150 173 7,900  Level Salt Lake Center
Sun 04:56:12 PM 46.4197 -104.7942 262° West 149 171 7,900  Level Salt Lake Center
Sun 04:57:13 PM 46.4139 -104.8506 261° West 146 168 7,900  Level Salt Lake Center
Sun 04:58:15 PM 46.4075 -104.9072 261° West 144 166 7,900  Level Salt Lake Center
Sun 04:59:17 PM 46.4006 -104.9644 260° West 145 167 7,900  Level Salt Lake Center
Sun 05:00:18 PM 46.3956 -105.0225 263° West 145 167 7,900  Level Salt Lake Center
Sun 05:01:20 PM 46.3906 -105.0769 262° West 140 161 7,900  Level Salt Lake Center
Sun 05:02:22 PM 46.3839 -105.1328 260° West 141 162 7,900  Level Salt Lake Center
Sun 05:03:24 PM 46.3767 -105.2006 261° West 142 163 7,900  Level Salt Lake Center
Sun 05:04:25 PM 46.3703 -105.2575 261° West 144 166 7,900  Level Salt Lake Center
Sun 05:05:27 PM 46.3647 -105.3150 262° West 144 166 7,900  Level Salt Lake Center
Sun 05:06:29 PM 46.3578 -105.3739 260° West 145 167 7,900  Level Salt Lake Center
Sun 05:07:31 PM 46.3519 -105.4275 261° West 145 167 7,900 Level Salt Lake Center
Sun 05:09:00 PM 46.3486 -105.5120 267° West  Level FlightAware Approximate
Sun 05:16:00 PM 46.3321 -105.9107 267° West  Level FlightAware Approximate
Sun 05:17:00 PM 46.3296 -105.9677 266° West  Level FlightAware Approximate
Sun 05:18:00 PM 46.3271 -106.0246 266° West  Level FlightAware Approximate
Sun 05:19:00 PM 46.3246 -106.0815 266° West  Level FlightAware Approximate
Sun 05:20:00 PM 46.3220 -106.1385 266° West  Level FlightAware Approximate
Sun 05:21:00 PM 46.3195 -106.1954 266° West  Level FlightAware Approximate
Sun 05:22:00 PM 46.3168 -106.2523 266° West  Level FlightAware Approximate
Sun 05:22:57 PM 46.2461 -106.3286 266° West 151 174 8,000  Level Salt Lake Center
Sun 05:23:00 PM 46.3142 -106.3092 266° West  Level FlightAware Approximate
Sun 05:23:59 PM 46.2422 -106.3867 264° West 138 159 7,900  Level Salt Lake Center
Sun 05:24:00 PM 46.3115 -106.3661 266° West  Level FlightAware Approximate
Sun 05:25:00 PM 46.3088 -106.4230 266° West  Level FlightAware Approximate
Sun 05:25:01 PM 46.2392 -106.4497 266° West 140 161 7,900  Level Salt Lake Center
Sun 05:26:00 PM 46.3061 -106.4799 266° West  Level FlightAware Approximate
Sun 05:27:00 PM 46.3033 -106.5368 266° West  Level FlightAware Approximate
Sun 05:27:00 PM 46.2257 -106.5603 260° West  Level FlightAware Approximate
Sun 05:28:00 PM 46.3006 -106.5936 266° West  Level FlightAware Approximate
Sun 05:34:00 PM 46.1976 -106.9548 265° West  Level FlightAware Approximate
Sun 05:34:55 PM 46.1736 -107.0167 265° West 167 192 8,000  Level Salt Lake Center
Sun 05:35:00 PM 46.1942 -107.0111 265° West  Level FlightAware Approximate
Sun 05:35:57 PM 46.1672 -107.0700 260° West 140 161 8,000  Level Salt Lake Center
Sun 05:36:00 PM 46.1908 -107.0675 265° West  Level FlightAware Approximate
Sun 05:36:58 PM 46.1606 -107.1261 260° West 140 161 8,000  Level Salt Lake Center
Sun 05:37:00 PM 46.1873 -107.1238 265° West  Level FlightAware Approximate
Sun 05:38:00 PM 46.1838 -107.1802 265° West  Level FlightAware Approximate
Sun 05:38:00 PM 46.1517 -107.1967 260° West 146 168 8,000  Level Salt Lake Center
Sun 05:39:00 PM 46.1802 -107.2365 265° West  Level FlightAware Approximate
Sun 05:39:02 PM 46.1447 -107.2536 260° West 146 168 8,000  Level Salt Lake Center
Sun 05:40:00 PM 46.1766 -107.2928 265° West  Level FlightAware Approximate
Sun 05:40:04 PM 46.1378 -107.3097 260° West 143 165 8,000  Level Salt Lake Center
Sun 05:41:06 PM 46.1308 -107.3669 260° West 145 167 8,000  Level Salt Lake Center
Sun 05:42:08 PM 46.1236 -107.4206 259° West 138 159 8,000  Level Salt Lake Center
Sun 05:43:10 PM 46.1172 -107.4772 261° West 142 163 8,000  Level Salt Lake Center
Sun 05:44:12 PM 46.1078 -107.5453 259° West 144 166 8,000  Level Salt Lake Center
Sun 05:45:13 PM 46.1006 -107.6011 259° West 145 167 8,000  Level Salt Lake Center
Sun 05:46:15 PM 46.0922 -107.6633 259° West 147 169 8,000  Level Salt Lake Center
Sun 05:47:17 PM 46.0856 -107.7203 260° West 146 168 8,000  Level Salt Lake Center
Sun 05:48:19 PM 46.0778 -107.7817 260° West 146 168 8,000  Level Salt Lake Center
Sun 05:49:21 PM 46.0706 -107.8381 260° West 144 166 8,000  Level Salt Lake Center
Sun 05:50:23 PM 46.0622 -107.8994 259° West 146 168 8,000  Level Salt Lake Center
Sun 05:51:25 PM 46.0553 -107.9550 260° West 144 166 8,000  Level Salt Lake Center
Sun 05:52:27 PM 46.0472 -108.0158 259° West 145 167 8,000  Level Salt Lake Center
Sun 05:53:29 PM 46.0394 -108.0747 259° West 151 174 8,000  Level Salt Lake Center
Sun 05:54:30 PM 46.0311 -108.1378 259° West 150 173 8,000  Level Salt Lake Center
Sun 05:55:32 PM 46.0236 -108.1933 259° West 145 167 8,000  Level Salt Lake Center
Sun 05:56:34 PM 46.0158 -108.2544 260° West 144 166 8,000  Level Salt Lake Center
Sun 05:57:36 PM 46.0081 -108.3106 259° West 144 166 8,000  Level Salt Lake Center
Sun 05:58:38 PM 46.0006 -108.3708 260° West 144 166 8,000  Level Salt Lake Center
Sun 05:59:40 PM 45.9922 -108.4267 258° West 145 167 8,000  Level Salt Lake Center
Sun 06:00:43 PM 45.9847 -108.4872 260° West 145 167 8,000  Level Salt Lake Center
Sun 06:01:44 PM 45.9775 -108.5442 260° West 147 169 8,000  Level Salt Lake Center
Sun 06:02:46 PM 45.9686 -108.6058 258° West 146 168 8,000  Level Salt Lake Center
Sun 06:03:48 PM 45.9611 -108.6614 259° West 145 167 8,000  Level Salt Lake Center
Sun 06:04:50 PM 45.9533 -108.7194 259° West 139 160 8,000  Level Salt Lake Center
Sun 06:05:52 PM 45.9461 -108.7733 259° West 140 161 8,000  Level Salt Lake Center
Sun 06:06:54 PM 45.9375 -108.8308 258° West 139 160 8,000  Level Salt Lake Center
Sun 06:07:56 PM 45.9306 -108.8856 260° West 139 160 8,000 98 Level Salt Lake Center
Sun 06:08:57 PM 45.9225 -108.9439 259° West 139 160 8,200 390 Climbing Salt Lake Center
Sun 06:09:59 PM 45.9156 -108.9903 258° West 124 143 8,800 581 Climbing Salt Lake Center
Sun 06:11:01 PM 45.9089 -109.0397 259° West 118 136 9,400 581 Climbing Salt Lake Center
Sun 06:12:03 PM 45.9069 -109.0836 266° West 114 131 10,000 290 Climbing Salt Lake Center
Sun 06:13:05 PM 45.9036 -109.1389 265° West 129 148 10,000  Level Salt Lake Center
Sun 06:14:08 PM 45.9008 -109.1936 266° West 138 159 10,000  Level Salt Lake Center
Sun 06:15:09 PM 45.8975 -109.2567 266° West 147 169 10,000  Level Salt Lake Center
Sun 06:16:11 PM 45.8942 -109.3147 265° West 147 169 10,000  Level Salt Lake Center
Sun 06:17:13 PM 45.8908 -109.3758 266° West 144 166 10,000  Level Salt Lake Center
Sun 06:18:15 PM 45.8878 -109.4314 266° West 142 163 10,000  Level Salt Lake Center
Sun 06:19:17 PM 45.8828 -109.4925 263° West 144 166 10,000  Level Salt Lake Center
Sun 06:20:19 PM 45.8683 -109.5461 249° West 144 166 10,000  Level Salt Lake Center
Sun 06:21:20 PM 45.8536 -109.6069 251° West 151 174 10,000  Level Salt Lake Center
Sun 06:22:22 PM 45.8508 -109.6667 266° West 152 175 10,000  Level Salt Lake Center
Sun 06:23:24 PM 45.8492 -109.7286 268° West 145 167 10,000  Level Salt Lake Center
Sun 06:24:26 PM 45.8469 -109.7878 267° West 149 171 10,000  Level Salt Lake Center
Sun 06:25:28 PM 45.8436 -109.8436 265° West 146 168 10,000  Level Salt Lake Center

Login

Don't have an account? Register now (free) for customized features, flight alerts, and more!